Masonic Park, Colorado
Current Conditions -  °F | °C
As of 11:50 PM on Wednesday 26 Nov 2014 (Local Time) from KRCV Reporting Station
Clear Clear  
Wind Chill: 16°   Ceiling: Unl
Heat Index: 23°   Visibility: 10mi
Dew Point: 13°   Wind: 6mph
Humidity: 63%   Direction: 280°W
Pressure: 30.5"   Gusts: NA
Location:  37.6617°N, 106.617°W
Report Text: KRCV 270650Z AUTO 28005KT 10SM CLR M05/M11 A3050 RMK AO2 T10481108 401231090
Loading
Personal Weather Stations






























Interactive Weather Map New forecast layout! Learn more

10-Day Weather Forecast

Advertisements
Track Severe Weather on mobile